createdAt,value
2023-05-12T00:00:37.141Z,50.902416
2023-05-12T00:01:37.127Z,50.902428
2023-05-12T00:02:37.213Z,50.902412
2023-05-12T00:03:38.175Z,50.902397
2023-05-12T00:04:37.112Z,50.902443
2023-05-12T00:05:37.059Z,50.902428
2023-05-12T00:06:37.076Z,50.902431
2023-05-12T00:07:37.052Z,50.902416
2023-05-12T00:08:37.037Z,50.902439
2023-05-12T00:09:37.037Z,50.902412
2023-05-12T00:10:37.020Z,50.902412
2023-05-12T00:11:37.037Z,50.902412
2023-05-12T00:12:37.022Z,50.902447
2023-05-12T00:13:37.020Z,50.902431
2023-05-12T00:14:36.994Z,50.902412
2023-05-12T00:15:36.978Z,50.902451
2023-05-12T00:16:37.075Z,50.902485
2023-05-12T00:17:36.998Z,50.902454
2023-05-12T00:18:37.054Z,50.902431
2023-05-12T00:19:36.976Z,50.902439
2023-05-12T00:20:36.937Z,50.902454
2023-05-12T00:21:36.959Z,50.902462
2023-05-12T00:22:36.923Z,50.902431
2023-05-12T00:23:36.978Z,50.902428
2023-05-12T00:24:36.997Z,50.902439
2023-05-12T00:25:36.995Z,50.902439
2023-05-12T00:26:37.039Z,50.902424
2023-05-12T00:27:36.994Z,50.902424
2023-05-12T00:28:36.976Z,50.902435
2023-05-12T00:29:36.862Z,50.902435
2023-05-12T00:30:37.890Z,50.902420
2023-05-12T00:31:36.887Z,50.902424
2023-05-12T00:32:36.894Z,50.902420
2023-05-12T00:33:36.847Z,50.902420
2023-05-12T00:34:36.841Z,50.902443
2023-05-12T00:35:36.848Z,50.902443
2023-05-12T00:36:36.823Z,50.902431
2023-05-12T00:37:36.815Z,50.902409
2023-05-12T00:38:36.804Z,50.902405
2023-05-12T00:39:36.813Z,50.902454
2023-05-12T00:40:36.810Z,50.902470
2023-05-12T00:41:36.771Z,50.902477
2023-05-12T00:42:37.490Z,50.902435
2023-05-12T00:43:36.758Z,50.902424
2023-05-12T00:44:36.797Z,50.902500
2023-05-12T00:45:36.764Z,50.902485
2023-05-12T00:46:36.741Z,50.902470
2023-05-12T00:47:36.755Z,50.902466
2023-05-12T00:48:36.717Z,50.902462
2023-05-12T00:49:36.744Z,50.902458
2023-05-12T00:50:36.698Z,50.902443
2023-05-12T00:51:36.707Z,50.902447
2023-05-12T00:52:36.692Z,50.902393
2023-05-12T00:53:48.258Z,50.902424
2023-05-12T00:54:38.692Z,50.902466
2023-05-12T00:55:36.668Z,50.902470
2023-05-12T00:56:36.658Z,50.902477
2023-05-12T00:57:36.653Z,50.902466
2023-05-12T00:58:36.675Z,50.902378
2023-05-12T00:59:36.628Z,50.902370
2023-05-12T01:00:36.643Z,50.902443
2023-05-12T01:01:36.699Z,50.902370
2023-05-12T01:02:36.775Z,50.902531
2023-05-12T01:03:36.664Z,50.902493
2023-05-12T01:04:36.603Z,50.902439
2023-05-12T01:05:36.591Z,50.902458
2023-05-12T01:06:36.579Z,50.902416
2023-05-12T01:07:36.610Z,50.902401
2023-05-12T01:08:36.586Z,50.902393
2023-05-12T01:09:36.557Z,50.902359
2023-05-12T01:10:36.558Z,50.902386
2023-05-12T01:11:36.541Z,50.902473
2023-05-12T01:12:36.571Z,50.902451
2023-05-12T01:13:36.528Z,50.902512
2023-05-12T01:14:36.512Z,50.902508
2023-05-12T01:15:36.502Z,50.902466
2023-05-12T01:16:36.514Z,50.902481
2023-05-12T01:17:36.661Z,50.902515
2023-05-12T01:18:36.576Z,50.902496
2023-05-12T01:19:36.482Z,50.902412
2023-05-12T01:20:36.474Z,50.902458
2023-05-12T01:21:36.464Z,50.902493
2023-05-12T01:22:36.485Z,50.902508
2023-05-12T01:23:36.448Z,50.902489
2023-05-12T01:24:36.431Z,50.902374
2023-05-12T01:25:36.433Z,50.902420
2023-05-12T01:26:36.429Z,50.902416
2023-05-12T01:27:36.444Z,50.902458
2023-05-12T01:28:36.407Z,50.902401
2023-05-12T01:29:36.401Z,50.902447
2023-05-12T01:30:36.399Z,50.902309
2023-05-12T01:31:36.484Z,50.902260
2023-05-12T01:32:36.469Z,50.902309
2023-05-12T01:33:36.373Z,50.902359
2023-05-12T01:34:36.362Z,50.902351
2023-05-12T01:35:36.352Z,50.902370
2023-05-12T01:36:36.417Z,50.902393
2023-05-12T01:37:36.380Z,50.902416
2023-05-12T01:38:36.332Z,50.902454
2023-05-12T01:39:36.320Z,50.902409
2023-05-12T01:40:36.317Z,50.902416
2023-05-12T01:41:36.335Z,50.902367
2023-05-12T01:42:36.303Z,50.902386
2023-05-12T01:43:36.278Z,50.902439
2023-05-12T01:44:36.281Z,50.902405
2023-05-12T01:45:36.271Z,50.902527
2023-05-12T01:46:36.363Z,50.902477
2023-05-12T01:47:36.284Z,50.902367
2023-05-12T01:48:36.239Z,50.902336
2023-05-12T01:49:36.242Z,50.902374
2023-05-12T01:50:36.229Z,50.902287
2023-05-12T01:51:36.257Z,50.902355
2023-05-12T01:52:36.228Z,50.902382
2023-05-12T01:53:36.205Z,50.902401
2023-05-12T01:54:36.195Z,50.902443
2023-05-12T01:55:36.216Z,50.902439
2023-05-12T01:56:36.200Z,50.902409
2023-05-12T01:57:36.180Z,50.902428
2023-05-12T01:58:36.209Z,50.902431
2023-05-12T01:59:36.181Z,50.902519
2023-05-12T02:00:36.185Z,50.902470
2023-05-12T02:01:36.185Z,50.902462
2023-05-12T02:02:36.269Z,50.902428
2023-05-12T02:03:37.224Z,50.902435
2023-05-12T02:04:36.133Z,50.902428
2023-05-12T02:05:36.133Z,50.902424
2023-05-12T02:06:36.107Z,50.902401
2023-05-12T02:07:36.101Z,50.902359
2023-05-12T02:08:36.096Z,50.902470
2023-05-12T02:09:36.077Z,50.902412
2023-05-12T02:10:36.114Z,50.902424
2023-05-12T02:11:36.072Z,50.902431
2023-05-12T02:12:36.762Z,50.902405
2023-05-12T02:13:36.054Z,50.902370
2023-05-12T02:14:36.085Z,50.902428
2023-05-12T02:15:36.082Z,50.902405
2023-05-12T02:16:36.111Z,50.902454
2023-05-12T02:17:36.045Z,50.902443
2023-05-12T02:18:36.049Z,50.902420
2023-05-12T02:19:36.033Z,50.902428
2023-05-12T02:20:35.995Z,50.902386
2023-05-12T02:21:35.995Z,50.902363
2023-05-12T02:22:35.974Z,50.902416
2023-05-12T02:23:35.972Z,50.902420
2023-05-12T02:24:35.987Z,50.902420
2023-05-12T02:25:35.968Z,50.902439
2023-05-12T02:26:35.956Z,50.902416
2023-05-12T02:27:35.953Z,50.902416
2023-05-12T02:28:35.959Z,50.902420
2023-05-12T02:29:35.956Z,50.902401
2023-05-12T02:30:35.927Z,50.902390
2023-05-12T02:31:35.928Z,50.902424
2023-05-12T02:32:35.955Z,50.902435
2023-05-12T02:33:35.937Z,50.902409
2023-05-12T02:34:35.894Z,50.902367
2023-05-12T02:35:35.884Z,50.902405
2023-05-12T02:36:35.887Z,50.902393
2023-05-12T02:37:35.876Z,50.902431
2023-05-12T02:38:35.893Z,50.902409
2023-05-12T02:39:35.865Z,50.902397
2023-05-12T02:40:35.869Z,50.902393
2023-05-12T02:41:35.833Z,50.902428
2023-05-12T02:42:35.869Z,50.902405
2023-05-12T02:43:35.841Z,50.902409
2023-05-12T02:44:35.812Z,50.902420
2023-05-12T02:45:35.859Z,50.902405
2023-05-12T02:46:35.803Z,50.902401
2023-05-12T02:47:35.851Z,50.902409
2023-05-12T02:48:35.820Z,50.902393
2023-05-12T02:49:35.775Z,50.902431
2023-05-12T02:50:35.772Z,50.902451
2023-05-12T02:51:35.756Z,50.902451
2023-05-12T02:52:35.791Z,50.902416
2023-05-12T02:53:35.746Z,50.902420
2023-05-12T02:54:35.742Z,50.902428
2023-05-12T02:55:35.737Z,50.902454
2023-05-12T02:56:35.747Z,50.902420
2023-05-12T02:57:35.738Z,50.902401
2023-05-12T02:58:35.717Z,50.902424
2023-05-12T02:59:35.696Z,50.902424
2023-05-12T03:00:35.695Z,50.902424
2023-05-12T03:01:35.739Z,50.902405
2023-05-12T03:02:35.765Z,50.902386
2023-05-12T03:03:35.765Z,50.902405
2023-05-12T03:04:35.656Z,50.902409
2023-05-12T03:05:35.648Z,50.902443
2023-05-12T03:06:35.704Z,50.902412
2023-05-12T03:07:35.679Z,50.902401
2023-05-12T03:08:35.616Z,50.902412
2023-05-12T03:09:35.617Z,50.902409
2023-05-12T03:10:35.607Z,50.902431
2023-05-12T03:11:35.672Z,50.902439
2023-05-12T03:12:35.594Z,50.902405
2023-05-12T03:13:35.581Z,50.902428
2023-05-12T03:14:35.598Z,50.902409
2023-05-12T03:15:35.583Z,50.902409
2023-05-12T03:16:35.614Z,50.902412
2023-05-12T03:17:35.619Z,50.902428
2023-05-12T03:18:35.582Z,50.902390
2023-05-12T03:19:35.541Z,50.902454
2023-05-12T03:20:35.634Z,50.902397
2023-05-12T03:21:35.603Z,50.902428
2023-05-12T03:22:35.614Z,50.902428
2023-05-12T03:23:35.567Z,50.902401
2023-05-12T03:24:35.581Z,50.902504
2023-05-12T03:25:35.580Z,50.902573
2023-05-12T03:26:35.527Z,50.902538
2023-05-12T03:27:35.513Z,50.902477
2023-05-12T03:28:36.532Z,50.902489
2023-05-12T03:29:35.513Z,50.902401
2023-05-12T03:30:35.558Z,50.902370
2023-05-12T03:31:35.505Z,50.902332
2023-05-12T03:32:35.545Z,50.902359
2023-05-12T03:33:35.608Z,50.902416
2023-05-12T03:34:35.493Z,50.902470
2023-05-12T03:35:35.439Z,50.902466
2023-05-12T03:36:35.418Z,50.902504
2023-05-12T03:37:35.401Z,50.902451
2023-05-12T03:38:35.394Z,50.902428
2023-05-12T03:39:35.438Z,50.902485
2023-05-12T03:40:35.387Z,50.902519
2023-05-12T03:41:35.365Z,50.902439
2023-05-12T03:42:35.371Z,50.902435
2023-05-12T03:43:35.356Z,50.902473
2023-05-12T03:44:35.374Z,50.902481
2023-05-12T03:45:35.348Z,50.902424
2023-05-12T03:46:35.512Z,50.902409
2023-05-12T03:47:35.443Z,50.902435
2023-05-12T03:48:35.328Z,50.902409
2023-05-12T03:49:35.360Z,50.902443
2023-05-12T03:50:35.304Z,50.902367
2023-05-12T03:51:35.296Z,50.902428
2023-05-12T03:52:35.292Z,50.902412
2023-05-12T03:53:35.292Z,50.902439
2023-05-12T03:54:37.184Z,50.902424
2023-05-12T03:55:35.265Z,50.902443
2023-05-12T03:56:35.257Z,50.902443
2023-05-12T03:57:35.255Z,50.902462
2023-05-12T03:58:35.265Z,50.902473
2023-05-12T03:59:35.267Z,50.902420
2023-05-12T04:00:35.289Z,50.902409
2023-05-12T04:01:35.269Z,50.902412
2023-05-12T04:02:35.289Z,50.902405
2023-05-12T04:03:35.313Z,50.902431
2023-05-12T04:04:35.194Z,50.902416
2023-05-12T04:05:35.185Z,50.902424
2023-05-12T04:06:35.168Z,50.902424
2023-05-12T04:07:35.163Z,50.902435
2023-05-12T04:08:35.215Z,50.902439
2023-05-12T04:09:35.154Z,50.902435
2023-05-12T04:10:35.167Z,50.902435
2023-05-12T04:11:35.137Z,50.902412
2023-05-12T04:12:35.158Z,50.902420
2023-05-12T04:13:35.146Z,50.902451
2023-05-12T04:14:42.082Z,50.902416
2023-05-12T04:15:37.109Z,50.902439
2023-05-12T04:16:35.155Z,50.902447
2023-05-12T04:17:35.177Z,50.902451
2023-05-12T04:18:35.086Z,50.902443
2023-05-12T04:19:35.085Z,50.902424
2023-05-12T04:20:35.076Z,50.902412
2023-05-12T04:21:35.077Z,50.902420
2023-05-12T04:22:35.084Z,50.902443
2023-05-12T04:23:35.088Z,50.902428
2023-05-12T04:24:35.038Z,50.902435
2023-05-12T04:25:35.031Z,50.902420
2023-05-12T04:26:35.052Z,50.902416
2023-05-12T04:27:35.090Z,50.902397
2023-05-12T04:28:35.005Z,50.902370
2023-05-12T04:29:35.020Z,50.902378
2023-05-12T04:30:34.991Z,50.902367
2023-05-12T04:31:35.035Z,50.902378
2023-05-12T04:32:34.998Z,50.902393
2023-05-12T04:33:34.978Z,50.902409
2023-05-12T04:34:34.989Z,50.902409
2023-05-12T04:35:34.966Z,50.902309
2023-05-12T04:36:34.973Z,50.902336
2023-05-12T04:37:34.943Z,50.902409
2023-05-12T04:38:34.939Z,50.902439
2023-05-12T04:39:34.922Z,50.902439
2023-05-12T04:40:35.287Z,50.902405
2023-05-12T04:41:35.928Z,50.902382
2023-05-12T04:42:34.900Z,50.902363
2023-05-12T04:44:35.879Z,50.902405
2023-05-12T04:45:34.898Z,50.902405
2023-05-12T04:46:34.969Z,50.902409
2023-05-12T04:47:34.900Z,50.902397
2023-05-12T04:48:35.860Z,50.902424
2023-05-12T04:49:34.842Z,50.902416
2023-05-12T04:50:34.868Z,50.902412
2023-05-12T04:51:34.830Z,50.902443
2023-05-12T04:52:34.816Z,50.902431
2023-05-12T04:53:34.866Z,50.902431
2023-05-12T04:54:34.832Z,50.902416
2023-05-12T04:55:34.819Z,50.902390
2023-05-12T04:56:34.823Z,50.902401
2023-05-12T04:57:34.777Z,50.902416
2023-05-12T04:58:34.771Z,50.902374
2023-05-12T04:59:34.888Z,50.902260
2023-05-12T05:00:34.754Z,50.902332
2023-05-12T05:01:34.783Z,50.902374
2023-05-12T05:02:34.863Z,50.902405
2023-05-12T05:03:35.777Z,50.902393
2023-05-12T05:04:34.758Z,50.902393
2023-05-12T05:05:34.744Z,50.902386
2023-05-12T05:06:34.751Z,50.902431
2023-05-12T05:07:34.715Z,50.902401
2023-05-12T05:08:34.726Z,50.902416
2023-05-12T05:09:36.244Z,50.902416
2023-05-12T05:10:35.502Z,50.902431
2023-05-12T05:11:34.677Z,50.902397
2023-05-12T05:12:34.662Z,50.902405
2023-05-12T05:13:34.689Z,50.902401
2023-05-12T05:14:34.686Z,50.902420
2023-05-12T05:15:34.709Z,50.902401
2023-05-12T05:16:34.632Z,50.902382
2023-05-12T05:17:34.679Z,50.902409
2023-05-12T05:18:34.693Z,50.902374
2023-05-12T05:19:49.854Z,50.902443
2023-05-12T05:21:34.609Z,50.902409
2023-05-12T05:22:34.613Z,50.902382
2023-05-12T05:23:34.629Z,50.902458
2023-05-12T05:24:34.586Z,50.902412
2023-05-12T05:25:34.591Z,50.902348
2023-05-12T05:26:34.564Z,50.902359
2023-05-12T05:27:34.604Z,50.902412
2023-05-12T05:28:34.543Z,50.902370
2023-05-12T05:29:34.557Z,50.902386
2023-05-12T05:30:34.529Z,50.902386
2023-05-12T05:31:34.634Z,50.902401
2023-05-12T05:32:34.601Z,50.902473
2023-05-12T05:33:34.517Z,50.902527
2023-05-12T05:34:34.513Z,50.902382
2023-05-12T05:35:34.550Z,50.902328
2023-05-12T05:36:34.507Z,50.902363
2023-05-12T05:37:34.499Z,50.902374
2023-05-12T05:38:34.488Z,50.902348
2023-05-12T05:39:34.454Z,50.902336
2023-05-12T05:40:44.835Z,50.902401
2023-05-12T05:41:36.469Z,50.902370
2023-05-12T05:42:34.436Z,50.902367
2023-05-12T05:43:34.424Z,50.902367
2023-05-12T05:44:34.420Z,50.902370
2023-05-12T05:45:34.409Z,50.902367
2023-05-12T05:46:34.525Z,50.902359
2023-05-12T05:47:34.532Z,50.902370
2023-05-12T05:48:34.410Z,50.902382
2023-05-12T05:49:34.390Z,50.902363
2023-05-12T05:50:34.558Z,50.902363
2023-05-12T05:51:34.475Z,50.902378
2023-05-12T05:52:34.356Z,50.902401
2023-05-12T05:53:34.349Z,50.902405
2023-05-12T05:54:34.363Z,50.902405
2023-05-12T05:55:34.449Z,50.902397
2023-05-12T05:56:34.321Z,50.902386
2023-05-12T05:57:34.310Z,50.902386
2023-05-12T05:58:34.309Z,50.902401
2023-05-12T05:59:34.937Z,50.902397
2023-05-12T06:00:34.314Z,50.902401
2023-05-12T06:01:34.342Z,50.902409
2023-05-12T06:02:34.382Z,50.902393
2023-05-12T06:03:34.410Z,50.902370
2023-05-12T06:04:34.288Z,50.902393
2023-05-12T06:05:34.295Z,50.902382
2023-05-12T06:06:34.244Z,50.902393
2023-05-12T06:07:34.225Z,50.902390
2023-05-12T06:08:35.230Z,50.902386
2023-05-12T06:09:34.266Z,50.902386
2023-05-12T06:10:35.213Z,50.902397
2023-05-12T06:11:34.205Z,50.902386
2023-05-12T06:12:34.194Z,50.902409
2023-05-12T06:13:34.199Z,50.902401
2023-05-12T06:14:34.207Z,50.902420
2023-05-12T06:15:34.164Z,50.902431
2023-05-12T06:16:34.251Z,50.902424
2023-05-12T06:17:34.175Z,50.902374
2023-05-12T06:18:34.189Z,50.902420
2023-05-12T06:19:34.205Z,50.902412
2023-05-12T06:20:34.137Z,50.902390
2023-05-12T06:21:34.124Z,50.902405
2023-05-12T06:22:34.114Z,50.902382
2023-05-12T06:23:34.130Z,50.902386
2023-05-12T06:24:34.130Z,50.902401
2023-05-12T06:25:34.090Z,50.902374
2023-05-12T06:26:34.083Z,50.902409
2023-05-12T06:27:34.086Z,50.902420
2023-05-12T06:28:34.097Z,50.902393
2023-05-12T06:29:34.071Z,50.902393
2023-05-12T06:30:34.062Z,50.902390
2023-05-12T06:31:34.134Z,50.902355
2023-05-12T06:32:34.080Z,50.902393
2023-05-12T06:33:34.078Z,50.902435
2023-05-12T06:34:34.067Z,50.902412
2023-05-12T06:35:34.062Z,50.902382
2023-05-12T06:36:34.152Z,50.902378
2023-05-12T06:37:34.027Z,50.902378
2023-05-12T06:38:34.112Z,50.902382
2023-05-12T06:39:33.989Z,50.902370
2023-05-12T06:40:34.038Z,50.902393
2023-05-12T06:41:33.986Z,50.902409
2023-05-12T06:42:34.009Z,50.902409
2023-05-12T06:43:33.961Z,50.902397
2023-05-12T06:44:33.961Z,50.902409
2023-05-12T06:45:33.951Z,50.902405
2023-05-12T06:46:34.000Z,50.902397
2023-05-12T06:47:33.984Z,50.902390
2023-05-12T06:48:33.920Z,50.902348
2023-05-12T06:49:33.916Z,50.902355
2023-05-12T06:50:33.906Z,50.902382
2023-05-12T06:51:33.961Z,50.902386
2023-05-12T06:52:33.923Z,50.902378
2023-05-12T06:53:33.877Z,50.902393
2023-05-12T06:54:33.892Z,50.902420
2023-05-12T06:55:33.869Z,50.902401
2023-05-12T06:56:33.892Z,50.902420
2023-05-12T06:57:33.854Z,50.902409
2023-05-12T06:58:33.856Z,50.902401
2023-05-12T06:59:33.840Z,50.902412
2023-05-12T07:00:33.948Z,50.902401
2023-05-12T07:01:33.872Z,50.902405
2023-05-12T07:02:33.908Z,50.902386
2023-05-12T07:03:33.919Z,50.902424
2023-05-12T07:04:33.799Z,50.902409
2023-05-12T07:05:33.875Z,50.902382
2023-05-12T07:06:33.811Z,50.902386
2023-05-12T07:07:33.874Z,50.902393
2023-05-12T07:08:33.769Z,50.902374
2023-05-12T07:09:33.770Z,50.902363
2023-05-12T07:10:33.774Z,50.902390
2023-05-12T07:11:33.739Z,50.902374
2023-05-12T07:12:33.731Z,50.902386
2023-05-12T07:13:33.727Z,50.902363
2023-05-12T07:14:33.716Z,50.902393
2023-05-12T07:15:33.744Z,50.902367
2023-05-12T07:16:33.735Z,50.902378
2023-05-12T07:17:33.763Z,50.902401
2023-05-12T07:18:33.737Z,50.902382
2023-05-12T07:19:33.714Z,50.902359
2023-05-12T07:20:33.692Z,50.902359
2023-05-12T07:21:33.664Z,50.902359
2023-05-12T07:22:33.656Z,50.902351
2023-05-12T07:23:33.648Z,50.902344
2023-05-12T07:24:33.659Z,50.902367
2023-05-12T07:25:33.649Z,50.902370
2023-05-12T07:26:33.646Z,50.902378
2023-05-12T07:27:33.621Z,50.902378
2023-05-12T07:28:33.610Z,50.902348
2023-05-12T07:29:33.627Z,50.902382
2023-05-12T07:30:33.602Z,50.902348
2023-05-12T07:31:33.661Z,50.902363
2023-05-12T07:32:33.616Z,50.902382
2023-05-12T07:33:33.595Z,50.902378
2023-05-12T07:34:33.586Z,50.902351
2023-05-12T07:35:33.555Z,50.902378
2023-05-12T07:36:33.545Z,50.902355
2023-05-12T07:37:33.559Z,50.902348
2023-05-12T07:38:33.565Z,50.902363
2023-05-12T07:39:33.571Z,50.902359
2023-05-12T07:40:33.530Z,50.902344
2023-05-12T07:41:34.482Z,50.902386
2023-05-12T07:42:33.504Z,50.902367
2023-05-12T07:43:33.528Z,50.902328
2023-05-12T07:44:33.521Z,50.902344
2023-05-12T07:45:33.479Z,50.902328
2023-05-12T07:46:33.520Z,50.902344
2023-05-12T07:47:33.509Z,50.902344
2023-05-12T07:48:33.492Z,50.902348
2023-05-12T07:49:33.465Z,50.902336
2023-05-12T07:50:33.463Z,50.902351
2023-05-12T07:51:33.438Z,50.902374
2023-05-12T07:52:33.458Z,50.902370
2023-05-12T07:53:33.476Z,50.902363
2023-05-12T07:54:33.419Z,50.902367
2023-05-12T07:55:33.547Z,50.902359
2023-05-12T07:56:33.402Z,50.902370
2023-05-12T07:57:33.428Z,50.902397
2023-05-12T07:58:33.387Z,50.902405
2023-05-12T07:59:33.383Z,50.902386
2023-05-12T08:00:33.373Z,50.902367
2023-05-12T08:01:33.928Z,50.902359
2023-05-12T08:02:33.472Z,50.902386
2023-05-12T08:03:33.400Z,50.902367
2023-05-12T08:04:33.357Z,50.902374
2023-05-12T08:05:33.366Z,50.902393
2023-05-12T08:06:33.349Z,50.902382
2023-05-12T08:07:33.334Z,50.902374
2023-05-12T08:08:33.310Z,50.902390
2023-05-12T08:09:33.300Z,50.902363
2023-05-12T08:10:33.297Z,50.902420
2023-05-12T08:11:33.349Z,50.902439
2023-05-12T08:12:33.283Z,50.902424
2023-05-12T08:13:33.291Z,50.902363
2023-05-12T08:14:33.257Z,50.902344
2023-05-12T08:15:33.257Z,50.902267
2023-05-12T08:16:33.309Z,50.902321
2023-05-12T08:17:33.270Z,50.902416
2023-05-12T08:18:33.303Z,50.902428
2023-05-12T08:19:33.866Z,50.902424
2023-05-12T08:20:33.244Z,50.902378
2023-05-12T08:21:33.251Z,50.902393
2023-05-12T08:22:33.347Z,50.902363
2023-05-12T08:23:33.204Z,50.902374
2023-05-12T08:24:33.894Z,50.902397
2023-05-12T08:25:33.196Z,50.902370
2023-05-12T08:26:33.227Z,50.902355
2023-05-12T08:27:33.298Z,50.902355
2023-05-12T08:28:33.151Z,50.902367
2023-05-12T08:29:33.151Z,50.902382
2023-05-12T08:30:33.276Z,50.902386
2023-05-12T08:31:33.244Z,50.902424
2023-05-12T08:32:33.147Z,50.902405
2023-05-12T08:33:33.157Z,50.902382
2023-05-12T08:34:33.137Z,50.902386
2023-05-12T08:35:34.184Z,50.902397
2023-05-12T08:36:33.099Z,50.902378
2023-05-12T08:37:34.339Z,50.902370
2023-05-12T08:38:34.098Z,50.902382
2023-05-12T08:39:34.101Z,50.902405
2023-05-12T08:40:33.117Z,50.902382
2023-05-12T08:41:33.053Z,50.902424
2023-05-12T08:42:33.039Z,50.902401
2023-05-12T08:43:33.127Z,50.902412
2023-05-12T08:44:33.054Z,50.902397
2023-05-12T08:45:33.044Z,50.902382
2023-05-12T08:46:33.106Z,50.902412
2023-05-12T08:47:34.045Z,50.902386
2023-05-12T08:48:33.037Z,50.902405
2023-05-12T08:49:33.010Z,50.902401
2023-05-12T08:50:32.983Z,50.902370
2023-05-12T08:51:32.977Z,50.902378
2023-05-12T08:52:32.960Z,50.902367
2023-05-12T08:53:32.976Z,50.902370
2023-05-12T08:54:33.465Z,50.902382
2023-05-12T08:55:34.054Z,50.902382
2023-05-12T08:57:33.923Z,50.902397
2023-05-12T08:58:40.837Z,50.902382
2023-05-12T08:59:35.094Z,50.902393
2023-05-12T09:00:32.937Z,50.902382
2023-05-12T09:01:34.222Z,50.902393
2023-05-12T09:02:41.329Z,50.902409
2023-05-12T09:03:34.965Z,50.902386
2023-05-12T09:04:32.949Z,50.902378
2023-05-12T09:05:32.865Z,50.902370
2023-05-12T09:06:33.003Z,50.902363
2023-05-12T09:07:32.910Z,50.902374
2023-05-12T09:08:33.000Z,50.902390
2023-05-12T09:09:32.829Z,50.902412
2023-05-12T09:10:35.455Z,50.902390
2023-05-12T09:11:33.809Z,50.902382
2023-05-12T09:12:32.823Z,50.902416
2023-05-12T09:13:32.794Z,50.902382
2023-05-12T09:14:32.792Z,50.902401
2023-05-12T09:15:32.950Z,50.902382
2023-05-12T09:16:32.863Z,50.902374
2023-05-12T09:17:32.824Z,50.902340
2023-05-12T09:18:32.798Z,50.902378
2023-05-12T09:19:32.752Z,50.902386
2023-05-12T09:20:32.779Z,50.902393
2023-05-12T09:21:32.763Z,50.902401
2023-05-12T09:22:32.730Z,50.902416
2023-05-12T09:23:32.718Z,50.902416
2023-05-12T09:24:32.720Z,50.902412
2023-05-12T09:25:32.698Z,50.902424
2023-05-12T09:26:32.747Z,50.902412
2023-05-12T09:27:32.700Z,50.902390
2023-05-12T09:28:32.681Z,50.902386
2023-05-12T09:29:35.898Z,50.902412
2023-05-12T09:30:33.675Z,50.902393
2023-05-12T09:31:32.822Z,50.902393
2023-05-12T09:32:32.711Z,50.902386
2023-05-12T09:33:32.742Z,50.902374
2023-05-12T09:34:32.634Z,50.902390
2023-05-12T09:35:33.388Z,50.902390
2023-05-12T09:36:32.658Z,50.902382
2023-05-12T09:37:32.612Z,50.902351
2023-05-12T09:38:32.608Z,50.902374
2023-05-12T09:39:32.631Z,50.902370
2023-05-12T09:40:32.637Z,50.902428
2023-05-12T09:41:32.584Z,50.902374
2023-05-12T09:42:32.582Z,50.902363
2023-05-12T09:43:32.578Z,50.902382
2023-05-12T09:44:32.555Z,50.902412
2023-05-12T09:45:32.580Z,50.902382
2023-05-12T09:46:32.636Z,50.902397
2023-05-12T09:47:32.653Z,50.902336
2023-05-12T09:48:32.530Z,50.902382
2023-05-12T09:49:32.553Z,50.902401
2023-05-12T09:50:40.952Z,50.902401
2023-05-12T09:51:34.504Z,50.902401
2023-05-12T09:52:32.527Z,50.902378
2023-05-12T09:53:32.493Z,50.902378
2023-05-12T09:54:32.519Z,50.902374
2023-05-12T09:55:32.477Z,50.902386
2023-05-12T09:56:32.511Z,50.902439
2023-05-12T09:57:32.464Z,50.902409
2023-05-12T09:58:32.453Z,50.902382
2023-05-12T09:59:32.509Z,50.902351
2023-05-12T10:00:41.150Z,50.902393
2023-05-12T10:01:34.443Z,50.902401
2023-05-12T10:02:32.530Z,50.902363
2023-05-12T10:03:32.456Z,50.902370
2023-05-12T10:04:32.538Z,50.902401
2023-05-12T10:05:32.408Z,50.902420
2023-05-12T10:06:32.395Z,50.902431
2023-05-12T10:07:32.961Z,50.902424
2023-05-12T10:08:32.425Z,50.902393
2023-05-12T10:09:32.374Z,50.902412
2023-05-12T10:10:32.419Z,50.902473
2023-05-12T10:11:32.369Z,50.902416
2023-05-12T10:12:32.382Z,50.902393
2023-05-12T10:13:32.368Z,50.902412
2023-05-12T10:14:32.342Z,50.902382
2023-05-12T10:15:32.331Z,50.902405
2023-05-12T10:16:32.356Z,50.902416
2023-05-12T10:17:32.398Z,50.902370
2023-05-12T10:18:32.375Z,50.902378
2023-05-12T10:19:32.310Z,50.902390
2023-05-12T10:20:32.292Z,50.902332
2023-05-12T10:21:32.308Z,50.902378
2023-05-12T10:22:32.296Z,50.902367
2023-05-12T10:23:32.291Z,50.902397
2023-05-12T10:24:32.258Z,50.902390
2023-05-12T10:25:32.248Z,50.902374
2023-05-12T10:26:32.261Z,50.902359
2023-05-12T10:27:32.974Z,50.902355
2023-05-12T10:28:32.253Z,50.902386
2023-05-12T10:29:32.221Z,50.902397
2023-05-12T10:30:32.205Z,50.902405
2023-05-12T10:31:32.275Z,50.902386
2023-05-12T10:32:32.287Z,50.902405
2023-05-12T10:33:32.182Z,50.902351
2023-05-12T10:34:32.174Z,50.902393
2023-05-12T10:35:32.196Z,50.902435
2023-05-12T10:36:32.201Z,50.902370
2023-05-12T10:37:32.144Z,50.902393
2023-05-12T10:38:32.146Z,50.902393
2023-05-12T10:39:32.132Z,50.902405
2023-05-12T10:40:32.148Z,50.902382
2023-05-12T10:41:32.178Z,50.902412
2023-05-12T10:42:32.111Z,50.902431
2023-05-12T10:43:32.097Z,50.902386
2023-05-12T10:44:32.096Z,50.902390
2023-05-12T10:45:32.108Z,50.902435
2023-05-12T10:46:32.203Z,50.902405
2023-05-12T10:47:32.096Z,50.902405
2023-05-12T10:48:32.058Z,50.902420
2023-05-12T10:49:32.051Z,50.902401
2023-05-12T10:50:32.070Z,50.902390
2023-05-12T10:51:33.002Z,50.902390
2023-05-12T10:52:32.051Z,50.902416
2023-05-12T10:53:45.186Z,50.902416
2023-05-12T10:54:34.020Z,50.902405
2023-05-12T10:55:32.134Z,50.902439
2023-05-12T10:56:32.239Z,50.902416
2023-05-12T10:57:32.433Z,50.902405
2023-05-12T10:58:32.216Z,50.902424
2023-05-12T10:59:32.244Z,50.902428
2023-05-12T11:00:32.573Z,50.902412
2023-05-12T11:01:32.514Z,50.902420
2023-05-12T11:02:32.898Z,50.902416
2023-05-12T11:03:33.248Z,50.902420
2023-05-12T11:04:32.127Z,50.902424
2023-05-12T11:05:32.140Z,50.902390
2023-05-12T11:06:32.629Z,50.902424
2023-05-12T11:07:32.943Z,50.902420
2023-05-12T11:08:32.552Z,50.902409
2023-05-12T11:09:32.030Z,50.902409
2023-05-12T11:10:33.372Z,50.902435
2023-05-12T11:11:32.350Z,50.902412
2023-05-12T11:12:31.881Z,50.902405
2023-05-12T11:13:31.888Z,50.902443
2023-05-12T11:14:31.889Z,50.902458
2023-05-12T11:15:31.883Z,50.902397
2023-05-12T11:16:31.890Z,50.902405
2023-05-12T11:17:32.161Z,50.902397
2023-05-12T11:18:31.887Z,50.902390
2023-05-12T11:19:31.825Z,50.902378
2023-05-12T11:20:31.817Z,50.902386
2023-05-12T11:21:31.802Z,50.902374
2023-05-12T11:22:31.800Z,50.902374
2023-05-12T11:23:31.820Z,50.902367
2023-05-12T11:24:31.780Z,50.902382
2023-05-12T11:25:31.800Z,50.902401
2023-05-12T11:26:31.764Z,50.902412
2023-05-12T11:27:31.779Z,50.902390